Time;durP1;ratioP1;P1;durP2;ratioP2;P2;SDS_P1;SDS_P2;PMS_P1;PMS_P2;Temp;Humidity;BMP_temperature;BMP_pressure;BME280_temperature;BME280_humidity;BME280_pressure;Samples;Min_cycle;Max_cycle;Signal;HPM_P1;HPM_P2
2023/09/24 00:01:24;;;;;;;0.20;0.20;;;;;;;10.68;75.98;98128.34;5042648;28;20049;-71
2023/09/24 00:03:52;;;;;;;0.20;0.20;;;;;;;10.72;75.81;98125.09;5041282;28;20390;-71
2023/09/24 00:06:20;;;;;;;0.25;0.25;;;;;;;10.77;75.58;98124.56;5042461;28;20084;-71
2023/09/24 00:08:48;;;;;;;0.10;0.10;;;;;;;10.83;75.16;98129.16;5056971;28;20045;-72
2023/09/24 00:11:17;;;;;;;0.17;0.17;;;;;;;10.80;74.88;98132.19;5045792;28;20037;-71
2023/09/24 00:13:45;;;;;;;0.22;0.22;;;;;;;10.80;74.58;98133.03;5046400;28;20042;-70
2023/09/24 00:16:14;;;;;;;0.20;0.20;;;;;;;10.79;75.05;98127.91;5046250;28;20048;-70
2023/09/24 00:18:42;;;;;;;0.15;0.15;;;;;;;10.55;75.79;98132.44;5044807;28;20040;-74
2023/09/24 00:21:10;;;;;;;0.20;0.20;;;;;;;10.32;76.98;98131.66;5049254;28;20060;-73
2023/09/24 00:23:38;;;;;;;0.20;0.20;;;;;;;10.30;76.95;98139.00;5042159;28;20082;-73
2023/09/24 00:26:06;;;;;;;0.20;0.20;;;;;;;10.44;75.92;98142.72;5041677;28;20124;-72
2023/09/24 00:28:35;;;;;;;0.10;0.10;;;;;;;10.16;76.92;98137.94;5041832;28;20090;-72
2023/09/24 00:31:03;;;;;;;0.10;0.10;;;;;;;10.22;76.26;98141.75;5041355;28;20076;-71
2023/09/24 00:33:31;;;;;;;0.30;0.30;;;;;;;10.15;76.11;98148.78;5046908;28;20566;-71
2023/09/24 00:36:00;;;;;;;0.17;0.17;;;;;;;10.12;76.64;98147.28;5039601;28;20120;-73
2023/09/24 00:38:27;;;;;;;0.10;0.10;;;;;;;10.22;76.36;98147.91;5041543;28;20466;-71
2023/09/24 00:40:55;;;;;;;0.20;0.20;;;;;;;10.18;76.64;98151.94;5041471;28;20112;-70
2023/09/24 00:43:28;;;;;;;0.20;0.20;;;;;;;10.14;77.00;98155.94;5045753;28;20164;-71
2023/09/24 00:45:59;;;;;;;0.22;0.22;;;;;;;10.17;76.95;98146.75;5056935;28;20046;-70
2023/09/24 00:48:29;;;;;;;0.20;0.20;;;;;;;10.22;77.01;98157.75;5056775;28;20096;-71
2023/09/24 00:50:58;;;;;;;0.20;0.20;;;;;;;10.41;76.46;98148.41;5056841;28;20068;-70
2023/09/24 00:53:27;;;;;;;0.20;0.20;;;;;;;10.45;76.02;98152.41;5051013;28;20041;-70
2023/09/24 00:55:56;;;;;;;0.20;0.20;;;;;;;10.47;75.42;98156.56;5045174;28;20037;-71
2023/09/24 00:58:25;;;;;;;0.20;0.20;;;;;;;10.18;76.24;98157.25;5060224;28;20059;-70
2023/09/24 01:00:54;;;;;;;0.20;0.20;;;;;;;10.31;75.60;98148.66;5061269;28;20509;-70
2023/09/24 01:03:24;;;;;;;0.30;0.30;;;;;;;10.17;75.70;98168.09;5059624;28;20072;-70
2023/09/24 01:05:52;;;;;;;0.20;0.20;;;;;;;10.19;75.46;98160.75;5043662;28;20055;-70
2023/09/24 01:08:21;;;;;;;0.20;0.20;;;;;;;10.22;75.39;98166.59;5051366;28;20486;-70
2023/09/24 01:10:49;;;;;;;0.20;0.20;;;;;;;10.13;75.77;98180.94;5051127;28;20448;-70
2023/09/24 01:13:19;;;;;;;0.40;0.40;;;;;;;10.02;77.09;98172.53;5044039;28;20055;-70
2023/09/24 01:15:48;;;;;;;0.30;0.30;;;;;;;9.92;77.77;98183.44;5042213;28;20458;-70
2023/09/24 01:18:16;;;;;;;0.20;0.20;;;;;;;10.00;77.46;98179.88;5059628;28;20461;-70
2023/09/24 01:20:45;;;;;;;0.45;0.45;;;;;;;10.18;76.46;98183.94;5044767;28;20037;-71
2023/09/24 01:23:15;;;;;;;0.20;0.20;;;;;;;10.23;76.49;98184.25;5042970;28;20061;-71
2023/09/24 01:25:44;;;;;;;0.20;0.20;;;;;;;10.16;76.25;98180.59;5050353;28;20033;-70
2023/09/24 01:28:12;;;;;;;0.20;0.20;;;;;;;10.09;75.76;98192.97;5058513;28;20083;-72
2023/09/24 01:30:40;;;;;;;0.45;0.30;;;;;;;10.09;76.18;98197.47;5043267;28;20049;-70
2023/09/24 01:33:07;;;;;;;0.15;0.15;;;;;;;10.11;75.79;98195.47;5044163;28;20051;-70
2023/09/24 01:35:36;;;;;;;0.20;0.20;;;;;;;10.00;75.71;98191.38;5059153;28;20085;-70
2023/09/24 01:38:05;;;;;;;0.20;0.20;;;;;;;9.97;76.04;98193.56;5050522;28;20074;-72
2023/09/24 01:40:35;;;;;;;0.10;0.10;;;;;;;9.79;76.79;98189.31;5041654;28;20436;-73
2023/09/24 01:43:05;;;;;;;0.20;0.20;;;;;;;9.79;76.74;98194.66;5041831;28;20041;-73
2023/09/24 01:45:34;;;;;;;0.15;0.15;;;;;;;9.68;77.89;98189.72;5057969;28;20102;-72
2023/09/24 01:48:03;;;;;;;0.25;0.25;;;;;;;9.75;77.55;98197.84;5044081;28;20490;-71
2023/09/24 01:50:33;;;;;;;0.20;0.20;;;;;;;9.82;77.25;98201.47;5044165;28;20037;-71
2023/09/24 01:53:02;;;;;;;0.10;0.10;;;;;;;9.91;76.66;98206.59;5059377;28;20041;-71
2023/09/24 01:55:30;;;;;;;0.20;0.20;;;;;;;9.78;76.70;98202.81;5058931;28;20420;-72
2023/09/24 01:58:00;;;;;;;0.20;0.20;;;;;;;9.74;77.12;98207.69;5043814;28;20048;-70
2023/09/24 02:00:28;;;;;;;0.20;0.20;;;;;;;9.77;77.02;98206.47;5057782;28;20099;-70
2023/09/24 02:02:59;;;;;;;0.20;0.20;;;;;;;9.69;76.99;98203.88;5042926;28;20048;-70
2023/09/24 02:05:32;;;;;;;0.20;0.20;;;;;;;9.71;77.34;98201.88;5043506;28;20090;-71
2023/09/24 02:08:00;;;;;;;0.20;0.20;;;;;;;9.70;77.09;98205.53;5065996;28;20041;-70
2023/09/24 02:10:28;;;;;;;0.10;0.10;;;;;;;9.47;78.42;98205.47;5047360;28;20069;-70
2023/09/24 02:12:57;;;;;;;0.10;0.10;;;;;;;9.64;77.81;98211.56;5042891;28;20437;-70
2023/09/24 02:15:26;;;;;;;0.13;0.13;;;;;;;9.71;77.10;98218.69;5058107;28;20529;-74
2023/09/24 02:17:54;;;;;;;0.30;0.30;;;;;;;9.71;76.37;98218.69;5045472;28;20041;-73
2023/09/24 02:20:24;;;;;;;0.30;0.30;;;;;;;9.64;76.50;98220.41;5042170;28;20037;-70
2023/09/24 02:22:53;;;;;;;0.20;0.20;;;;;;;9.40;77.47;98218.66;5058623;28;20142;-70
2023/09/24 02:25:21;;;;;;;0.22;0.22;;;;;;;9.31;77.69;98219.69;5044054;28;20098;-70
2023/09/24 02:27:50;;;;;;;0.20;0.20;;;;;;;9.46;77.45;98225.94;5051021;28;20926;-71
2023/09/24 02:30:19;;;;;;;0.20;0.20;;;;;;;9.43;77.02;98225.47;5042741;28;20414;-74
2023/09/24 02:32:49;;;;;;;0.30;0.30;;;;;;;9.27;77.65;98230.84;5041119;28;20044;-73
2023/09/24 02:35:17;;;;;;;0.20;0.20;;;;;;;9.41;76.55;98225.63;5041858;28;20041;-73
2023/09/24 02:37:47;;;;;;;0.20;0.20;;;;;;;9.15;77.99;98222.38;5041848;28;20037;-74
2023/09/24 02:40:21;;;;;;;0.20;0.20;;;;;;;9.19;77.86;98234.34;5042137;28;20113;-73
2023/09/24 02:42:50;;;;;;;0.20;0.20;;;;;;;9.09;78.43;98234.53;5042967;28;20045;-73
2023/09/24 02:45:17;;;;;;;0.20;0.20;;;;;;;9.42;76.97;98231.81;5056699;28;20049;-73
2023/09/24 02:47:47;;;;;;;0.20;0.20;;;;;;;9.29;77.71;98236.81;5042169;28;20041;-72
2023/09/24 02:50:17;;;;;;;0.20;0.20;;;;;;;9.18;78.46;98240.69;5048723;28;20123;-73
2023/09/24 02:52:47;;;;;;;0.22;0.22;;;;;;;9.11;78.59;98242.38;5042579;28;20117;-72
2023/09/24 02:55:15;;;;;;;0.32;0.32;;;;;;;9.06;78.37;98242.03;5041844;28;20095;-74
2023/09/24 02:57:44;;;;;;;0.17;0.17;;;;;;;9.10;77.99;98241.53;5040961;28;20055;-74
2023/09/24 03:00:17;;;;;;;0.17;0.17;;;;;;;9.06;78.17;98244.69;5057509;28;20079;-73
2023/09/24 03:02:45;;;;;;;0.20;0.20;;;;;;;9.05;79.10;98256.34;5055607;28;20044;-73
2023/09/24 03:05:17;;;;;;;0.20;0.20;;;;;;;9.04;79.40;98265.31;5041556;28;20037;-73
2023/09/24 03:07:46;;;;;;;0.20;0.20;;;;;;;9.17;78.90;98257.66;5041348;28;20152;-73
2023/09/24 03:10:14;;;;;;;0.20;0.20;;;;;;;9.07;79.15;98265.81;5042821;28;20033;-73
2023/09/24 03:12:42;;;;;;;0.15;0.15;;;;;;;9.12;78.89;98270.66;5057081;28;20055;-73
2023/09/24 03:15:11;;;;;;;0.20;0.20;;;;;;;9.22;78.02;98265.97;5056271;28;20053;-76
2023/09/24 03:17:39;;;;;;;0.15;0.15;;;;;;;9.11;78.34;98271.66;5041012;28;20057;-75
2023/09/24 03:20:13;;;;;;;0.20;0.20;;;;;;;9.13;78.83;98277.66;5057083;28;20502;-74
2023/09/24 03:22:40;;;;;;;0.20;0.20;;;;;;;9.15;78.91;98280.97;5040929;28;20127;-73
2023/09/24 03:25:11;;;;;;;0.20;0.20;;;;;;;9.03;78.67;98285.78;5043688;28;20036;-73
2023/09/24 03:27:40;;;;;;;0.30;0.30;;;;;;;8.91;79.10;98284.50;5039820;28;20585;-73
2023/09/24 03:30:10;;;;;;;0.20;0.20;;;;;;;8.96;78.53;98286.63;5039346;28;20053;-75
2023/09/24 03:32:38;;;;;;;0.20;0.20;;;;;;;8.96;78.75;98290.13;5042215;28;20112;-76
2023/09/24 03:35:08;;;;;;;0.20;0.20;;;;;;;8.95;78.73;98290.28;5041614;28;20037;-75
2023/09/24 03:37:40;;;;;;;0.20;0.20;;;;;;;9.01;77.85;98300.28;5042059;28;20475;-74
2023/09/24 03:40:12;;;;;;;0.13;0.13;;;;;;;8.96;77.63;98300.78;5041723;28;20044;-74
2023/09/24 03:42:40;;;;;;;0.20;0.20;;;;;;;8.98;77.61;98300.63;5041707;28;20099;-74
2023/09/24 03:45:10;;;;;;;0.10;0.10;;;;;;;8.80;77.71;98308.78;5046959;28;20585;-73
2023/09/24 03:47:38;;;;;;;0.20;0.20;;;;;;;8.66;78.25;98317.41;5040931;28;20055;-75
2023/09/24 03:50:09;;;;;;;0.20;0.20;;;;;;;8.85;77.96;98322.41;5057104;28;20044;-75
2023/09/24 03:52:38;;;;;;;0.10;0.10;;;;;;;9.01;77.16;98326.91;5040176;28;20498;-75
2023/09/24 03:55:06;;;;;;;0.20;0.20;;;;;;;9.01;76.18;98324.25;5055084;28;20063;-75
2023/09/24 03:57:35;;;;;;;0.22;0.22;;;;;;;8.84;76.59;98331.38;5056436;28;20409;-75
2023/09/24 04:00:08;;;;;;;0.20;0.20;;;;;;;8.63;77.35;98337.19;5040581;28;20036;-75
2023/09/24 04:02:40;;;;;;;0.20;0.20;;;;;;;8.76;76.80;98329.56;5041114;28;20061;-75
2023/09/24 04:05:14;;;;;;;0.20;0.20;;;;;;;8.62;77.28;98340.84;5047841;28;20037;-76
2023/09/24 04:07:43;;;;;;;0.20;0.20;;;;;;;8.65;77.38;98342.34;5041174;28;20040;-75
2023/09/24 04:10:14;;;;;;;0.10;0.10;;;;;;;8.69;77.42;98343.69;5056023;28;20114;-76
2023/09/24 04:12:46;;;;;;;0.30;0.30;;;;;;;8.83;76.88;98361.66;5040940;28;20040;-75
2023/09/24 04:15:15;;;;;;;0.25;0.25;;;;;;;8.75;77.30;98361.66;5040969;28;20041;-75
2023/09/24 04:17:43;;;;;;;0.35;0.35;;;;;;;8.79;76.67;98366.50;5041265;28;20041;-75
2023/09/24 04:20:15;;;;;;;0.20;0.20;;;;;;;8.99;75.93;98372.34;5040530;28;20529;-75
2023/09/24 04:22:44;;;;;;;0.20;0.20;;;;;;;8.71;76.23;98371.81;5041203;28;20422;-74
2023/09/24 04:25:14;;;;;;;0.13;0.13;;;;;;;8.34;77.58;98374.88;5040520;28;20575;-73
2023/09/24 04:27:43;;;;;;;0.22;0.22;;;;;;;8.40;77.45;98371.56;5041152;28;20053;-73
2023/09/24 04:30:15;;;;;;;0.25;0.25;;;;;;;8.68;76.93;98377.47;5040570;28;20049;-75
2023/09/24 04:32:43;;;;;;;0.15;0.15;;;;;;;8.72;76.79;98383.28;5041359;28;20033;-75
2023/09/24 04:35:11;;;;;;;0.20;0.20;;;;;;;8.45;78.57;98379.88;5041192;28;20052;-75
2023/09/24 04:37:39;;;;;;;0.30;0.30;;;;;;;8.53;79.27;98379.06;5040474;28;20049;-75
2023/09/24 04:40:10;;;;;;;0.13;0.13;;;;;;;8.45;79.45;98381.72;5041202;28;20133;-75
2023/09/24 04:42:41;;;;;;;0.25;0.25;;;;;;;8.52;78.92;98385.38;5040930;28;20124;-73
2023/09/24 04:45:11;;;;;;;0.30;0.30;;;;;;;8.66;77.94;98387.44;5040838;28;20037;-73
2023/09/24 04:47:39;;;;;;;0.32;0.32;;;;;;;8.64;78.22;98391.25;5040581;28;20494;-73
2023/09/24 04:50:10;;;;;;;0.22;0.22;;;;;;;8.65;77.83;98391.06;5040543;28;20039;-72
2023/09/24 04:52:38;;;;;;;0.20;0.20;;;;;;;8.59;77.75;98401.56;5040930;28;20044;-72
2023/09/24 04:55:06;;;;;;;0.10;0.10;;;;;;;8.64;77.76;98405.38;5039789;28;21579;-72
2023/09/24 04:57:34;;;;;;;0.25;0.25;;;;;;;8.69;78.22;98415.56;5041681;28;20152;-73
2023/09/24 05:00:02;;;;;;;0.10;0.10;;;;;;;8.68;77.71;98417.38;5040867;28;20060;-73
2023/09/24 05:02:31;;;;;;;0.20;0.20;;;;;;;8.68;77.47;98414.72;5040355;28;20107;-72
2023/09/24 05:04:59;;;;;;;0.20;0.20;;;;;;;8.73;76.87;98423.03;5042260;28;20514;-72
2023/09/24 05:07:29;;;;;;;0.20;0.20;;;;;;;8.66;76.79;98424.69;5041658;28;20049;-72
2023/09/24 05:09:57;;;;;;;0.00;0.00;;;;;;;8.59;77.45;98421.00;5042684;28;20127;-72
2023/09/24 05:12:24;;;;;;;0.20;0.20;;;;;;;8.56;77.41;98428.47;5041709;28;20120;-73
2023/09/24 05:14:52;;;;;;;0.22;0.22;;;;;;;8.62;77.79;98431.31;5041123;28;20040;-72
2023/09/24 05:17:20;;;;;;;0.20;0.20;;;;;;;8.62;78.27;98431.31;5040242;28;20103;-72
2023/09/24 05:19:49;;;;;;;0.20;0.20;;;;;;;8.57;78.86;98440.78;5041100;28;20120;-72
2023/09/24 05:22:17;;;;;;;0.30;0.30;;;;;;;8.61;78.77;98447.47;5040666;28;20045;-74
2023/09/24 05:24:44;;;;;;;0.20;0.20;;;;;;;8.68;78.87;98445.81;5040696;28;20044;-78
2023/09/24 05:27:17;;;;;;;0.20;0.20;;;;;;;8.78;78.60;98441.19;5040306;28;20041;-73
2023/09/24 05:29:46;;;;;;;0.20;0.20;;;;;;;8.82;78.32;98445.19;5037707;28;20048;-73
2023/09/24 05:32:14;;;;;;;0.25;0.25;;;;;;;8.84;78.53;98457.31;5040687;28;20120;-72
2023/09/24 05:34:42;;;;;;;0.22;0.22;;;;;;;8.84;78.92;98454.66;5037869;28;20057;-73
2023/09/24 05:37:11;;;;;;;0.10;0.10;;;;;;;8.80;79.65;98457.84;5039352;28;20041;-73
2023/09/24 05:39:39;;;;;;;0.20;0.20;;;;;;;8.74;80.28;98461.13;5039743;28;20049;-73
2023/09/24 05:42:06;;;;;;;0.20;0.20;;;;;;;8.51;81.87;98460.06;5042868;28;20045;-73
2023/09/24 05:44:34;;;;;;;0.20;0.20;;;;;;;8.64;81.24;98466.56;5043121;28;20136;-72
2023/09/24 05:47:06;;;;;;;0.32;0.32;;;;;;;8.73;81.33;98462.94;5044181;28;20063;-75
2023/09/24 05:49:34;;;;;;;0.20;0.20;;;;;;;8.66;81.69;98474.41;5043538;28;20100;-72
2023/09/24 05:52:02;;;;;;;0.20;0.20;;;;;;;8.83;81.29;98468.97;5043486;28;20760;-76
2023/09/24 05:54:32;;;;;;;0.30;0.30;;;;;;;8.83;81.07;98470.78;5043518;28;20049;-73
2023/09/24 05:57:00;;;;;;;0.30;0.30;;;;;;;8.83;81.37;98462.81;5044841;28;20041;-74
2023/09/24 05:59:27;;;;;;;0.32;0.32;;;;;;;9.01;80.45;98471.53;5043932;28;20428;-73
2023/09/24 06:01:55;;;;;;;0.30;0.30;;;;;;;9.02;80.54;98467.88;5043129;28;20112;-74
2023/09/24 06:04:23;;;;;;;0.38;0.38;;;;;;;9.06;80.18;98465.69;5042504;28;20425;-74
2023/09/24 06:06:51;;;;;;;0.20;0.20;;;;;;;9.19;79.67;98474.88;5043860;28;20580;-74
2023/09/24 06:09:20;;;;;;;0.10;0.10;;;;;;;9.17;79.58;98474.22;5043364;28;20056;-73
2023/09/24 06:11:49;;;;;;;0.17;0.17;;;;;;;9.01;79.97;98474.19;5043833;28;20040;-73
2023/09/24 06:14:17;;;;;;;0.10;0.10;;;;;;;8.99;80.79;98472.69;5042583;28;20049;-73
2023/09/24 06:16:44;;;;;;;0.20;0.20;;;;;;;9.00;80.65;98480.50;5042697;28;20536;-73
2023/09/24 06:19:14;;;;;;;0.15;0.15;;;;;;;9.15;80.09;98478.88;5043595;28;20433;-73
2023/09/24 06:21:42;;;;;;;0.10;0.10;;;;;;;9.28;79.58;98482.88;5042252;28;20044;-74
2023/09/24 06:24:09;;;;;;;0.20;0.20;;;;;;;9.20;79.95;98486.38;5043010;28;20581;-74
2023/09/24 06:26:38;;;;;;;0.20;0.20;;;;;;;9.10;80.65;98491.03;5043129;28;20041;-73
2023/09/24 06:29:08;;;;;;;0.20;0.20;;;;;;;9.16;80.25;98493.00;5042164;28;20458;-75
2023/09/24 06:31:39;;;;;;;0.20;0.20;;;;;;;9.32;79.78;98501.06;5043616;28;20537;-74
2023/09/24 06:34:07;;;;;;;0.20;0.20;;;;;;;9.47;79.19;98504.72;5043286;28;20406;-74
2023/09/24 06:36:35;;;;;;;0.22;0.22;;;;;;;9.53;79.20;98504.06;5042596;28;20049;-73
2023/09/24 06:39:07;;;;;;;0.20;0.20;;;;;;;9.55;78.91;98511.91;5042162;28;20037;-75
2023/09/24 06:41:36;;;;;;;0.20;0.20;;;;;;;9.49;79.08;98516.06;5043262;28;20051;-73
2023/09/24 06:44:03;;;;;;;0.20;0.20;;;;;;;9.46;79.50;98515.53;5042484;28;20043;-74
2023/09/24 06:46:32;;;;;;;0.30;0.30;;;;;;;9.45;79.77;98516.53;5043526;28;20045;-73
2023/09/24 06:49:00;;;;;;;0.13;0.13;;;;;;;9.23;80.80;98515.34;5043585;28;20049;-74
2023/09/24 06:51:28;;;;;;;0.17;0.17;;;;;;;9.26;80.86;98503.53;5051546;28;20041;-74
2023/09/24 06:53:56;;;;;;;0.10;0.10;;;;;;;9.44;80.51;98510.41;5047008;28;20047;-73
2023/09/24 06:56:23;;;;;;;0.20;0.20;;;;;;;9.53;79.92;98513.91;5042882;28;20050;-74
2023/09/24 06:58:51;;;;;;;0.20;0.20;;;;;;;9.47;80.45;98514.53;5044195;28;20037;-74
2023/09/24 07:01:19;;;;;;;0.20;0.20;;;;;;;9.59;80.28;98521.22;5041457;28;20124;-74
2023/09/24 07:03:48;;;;;;;0.22;0.22;;;;;;;9.78;80.10;98520.06;5042539;28;20475;-73
2023/09/24 07:06:17;;;;;;;0.20;0.20;;;;;;;9.84;79.30;98524.75;5041648;28;20191;-74
2023/09/24 07:08:45;;;;;;;0.22;0.22;;;;;;;9.98;79.18;98526.72;5042537;28;21563;-74
2023/09/24 07:11:24;;;;;;;0.20;0.20;;;;;;;10.11;78.53;98532.38;5042291;28;20103;-74
2023/09/24 07:13:52;;;;;;;0.10;0.10;;;;;;;10.15;78.31;98528.38;5042639;28;20490;-74
2023/09/24 07:16:22;;;;;;;0.13;0.13;;;;;;;10.16;78.44;98538.06;5041221;28;20041;-74
2023/09/24 07:18:52;;;;;;;0.15;0.15;;;;;;;10.19;77.99;98531.56;5041724;28;20044;-74
2023/09/24 07:21:20;;;;;;;0.20;0.20;;;;;;;10.24;77.64;98530.06;5041683;28;20037;-74
2023/09/24 07:24:02;;;;;;;0.28;0.28;;;;;;;10.31;77.58;98530.22;5041745;28;20549;-74
2023/09/24 07:26:30;;;;;;;0.25;0.25;;;;;;;10.42;77.57;98532.53;5041380;28;20049;-75
2023/09/24 07:28:59;;;;;;;0.20;0.20;;;;;;;10.61;76.96;98531.31;5041629;28;20202;-74
2023/09/24 07:31:28;;;;;;;0.20;0.20;;;;;;;10.77;76.74;98533.09;5040662;28;20079;-73
2023/09/24 07:34:01;;;;;;;0.13;0.13;;;;;;;10.82;76.75;98539.56;5040930;28;20386;-74
2023/09/24 07:36:30;;;;;;;0.20;0.20;;;;;;;10.89;76.31;98539.75;5041430;28;20127;-73
2023/09/24 07:39:08;;;;;;;;;;;;;;;10.97;76.32;98542.38;5041158;28;20072;-75
2023/09/24 07:41:36;;;;;;;0.30;0.30;;;;;;;10.85;76.04;98531.22;5041972;28;19925;-74
2023/09/24 07:44:04;;;;;;;0.20;0.20;;;;;;;10.90;76.56;98531.53;5042013;28;20386;-75
2023/09/24 07:46:32;;;;;;;0.20;0.20;;;;;;;11.03;76.39;98539.00;5040825;28;20056;-74
2023/09/24 07:49:05;;;;;;;0.20;0.20;;;;;;;11.13;76.23;98531.59;5041489;28;20041;-74
2023/09/24 07:51:33;;;;;;;0.20;0.20;;;;;;;11.26;75.85;98534.53;5041161;28;20047;-74
2023/09/24 07:54:01;;;;;;;0.20;0.20;;;;;;;11.25;75.80;98532.88;5041533;28;20116;-74
2023/09/24 07:56:30;;;;;;;0.20;0.20;;;;;;;11.35;75.64;98540.66;5041391;28;20056;-75
2023/09/24 07:58:58;;;;;;;0.25;0.25;;;;;;;11.46;75.20;98545.59;5041542;28;20621;-75
2023/09/24 08:01:26;;;;;;;0.20;0.20;;;;;;;11.61;74.28;98532.31;5040830;28;20128;-74
2023/09/24 08:03:54;;;;;;;0.20;0.20;;;;;;;11.77;73.81;98540.25;5042639;28;20033;-75
2023/09/24 08:06:24;;;;;;;0.20;0.20;;;;;;;11.92;73.29;98541.16;5041156;28;20046;-74
2023/09/24 08:08:53;;;;;;;0.17;0.17;;;;;;;11.96;72.96;98545.09;5041086;28;20048;-74
2023/09/24 08:11:39;;;;;;;0.13;0.13;;;;;;;12.01;72.85;98549.94;5041752;28;20118;-73
2023/09/24 08:14:07;;;;;;;0.20;0.20;;;;;;;12.08;73.02;98559.72;5039742;28;20126;-74
2023/09/24 08:16:35;;;;;;;0.10;0.10;;;;;;;12.16;72.60;98560.66;5040707;28;20053;-74
2023/09/24 08:19:03;;;;;;;0.10;0.10;;;;;;;12.29;72.84;98566.25;5041683;28;20056;-74
2023/09/24 08:21:32;;;;;;;0.20;0.20;;;;;;;12.40;72.43;98568.47;5046573;28;20491;-74
2023/09/24 08:24:00;;;;;;;0.20;0.20;;;;;;;12.36;72.31;98568.00;5040529;28;20083;-74
2023/09/24 08:26:28;;;;;;;0.20;0.20;;;;;;;12.35;72.70;98561.00;5040699;28;20053;-73
2023/09/24 08:28:55;;;;;;;0.10;0.10;;;;;;;12.47;72.55;98574.75;5046082;28;20133;-74
2023/09/24 08:31:25;;;;;;;0.20;0.20;;;;;;;12.45;73.15;98566.09;5048255;28;20159;-74
2023/09/24 08:33:53;;;;;;;0.20;0.20;;;;;;;12.52;72.51;98571.53;5040535;28;20060;-74
2023/09/24 08:36:21;;;;;;;0.15;0.15;;;;;;;12.55;72.16;98580.06;5038864;28;20506;-74
2023/09/24 08:38:50;;;;;;;0.20;0.20;;;;;;;12.62;72.33;98575.63;5040830;28;20522;-74
2023/09/24 08:41:18;;;;;;;0.10;0.10;;;;;;;12.71;72.28;98571.00;5039528;28;20053;-74
2023/09/24 08:43:46;;;;;;;0.10;0.10;;;;;;;12.76;71.41;98577.50;5039783;28;20552;-74
2023/09/24 08:46:16;;;;;;;0.17;0.17;;;;;;;12.69;71.50;98584.56;5040557;28;20099;-73
2023/09/24 08:48:43;;;;;;;0.25;0.25;;;;;;;12.82;71.33;98589.31;5041212;28;20041;-74
2023/09/24 08:51:12;;;;;;;0.22;0.22;;;;;;;12.97;71.33;98581.28;5040235;28;20051;-75
2023/09/24 08:53:40;;;;;;;0.10;0.10;;;;;;;13.09;71.09;98587.81;5040168;28;20049;-74
2023/09/24 08:56:09;;;;;;;0.10;0.10;;;;;;;13.21;71.77;98578.31;5039812;28;20399;-74
2023/09/24 08:58:41;;;;;;;0.20;0.20;;;;;;;13.31;70.49;98569.97;5040322;28;20072;-75
2023/09/24 09:01:09;;;;;;;0.20;0.20;;;;;;;13.35;70.36;98579.31;5040165;28;20065;-75
2023/09/24 09:03:38;;;;;;;0.30;0.30;;;;;;;13.40;70.99;98579.56;5039810;28;20040;-75
2023/09/24 09:06:06;;;;;;;0.10;0.10;;;;;;;13.53;70.54;98571.69;5039473;28;20025;-75
2023/09/24 09:08:49;;;;;;;0.15;0.15;;;;;;;13.65;70.21;98569.34;5039409;28;20056;-75
2023/09/24 09:11:19;;;;;;;0.10;0.10;;;;;;;13.73;69.73;98578.09;5039414;28;20056;-74
2023/09/24 09:13:48;;;;;;;0.10;0.10;;;;;;;13.86;69.93;98566.69;5047613;28;20107;-75
2023/09/24 09:16:17;;;;;;;0.10;0.10;;;;;;;14.03;69.95;98572.59;5043665;28;20033;-75
2023/09/24 09:18:59;;;;;;;0.10;0.10;;;;;;;14.19;69.08;98570.50;5044775;28;20053;-75
2023/09/24 09:21:26;;;;;;;0.20;0.20;;;;;;;14.31;69.44;98579.72;5044338;28;20052;-75
2023/09/24 09:23:54;;;;;;;0.22;0.22;;;;;;;14.40;68.69;98574.22;5043955;28;20061;-75
2023/09/24 09:26:27;;;;;;;0.20;0.20;;;;;;;14.17;69.17;98579.78;5043928;28;20057;-75
2023/09/24 09:28:55;;;;;;;0.30;0.30;;;;;;;14.37;68.49;98575.41;5045733;28;20618;-75
2023/09/24 09:31:23;;;;;;;0.20;0.20;;;;;;;14.37;68.55;98569.19;5043391;28;20049;-75
2023/09/24 09:33:51;;;;;;;0.20;0.20;;;;;;;14.56;68.89;98569.38;5043637;28;20038;-75
2023/09/24 09:36:21;;;;;;;0.17;0.17;;;;;;;14.75;67.78;98573.22;5044214;28;20041;-75
2023/09/24 09:38:50;;;;;;;0.20;0.20;;;;;;;14.93;68.06;98564.66;5043988;28;20417;-75
2023/09/24 09:41:19;;;;;;;0.10;0.10;;;;;;;15.09;67.93;98572.38;5044113;28;20536;-75
2023/09/24 09:43:49;;;;;;;0.15;0.15;;;;;;;15.19;66.38;98572.84;5043494;28;20073;-75
2023/09/24 09:46:18;;;;;;;0.10;0.10;;;;;;;14.98;66.69;98572.94;5042643;28;20116;-76
2023/09/24 09:48:51;;;;;;;0.10;0.10;;;;;;;15.03;67.10;98576.72;5058765;28;20046;-75
2023/09/24 09:51:20;;;;;;;0.20;0.20;;;;;;;15.12;67.03;98579.22;5043373;28;20132;-74
2023/09/24 09:53:48;;;;;;;0.10;0.10;;;;;;;15.17;66.63;98574.91;5042719;28;20122;-73
2023/09/24 09:56:16;;;;;;;0.10;0.10;;;;;;;15.33;66.74;98563.00;5043166;28;20040;-74
2023/09/24 09:58:47;;;;;;;0.10;0.10;;;;;;;15.39;65.06;98568.38;5043274;28;20045;-73
2023/09/24 10:01:18;;;;;;;0.10;0.10;;;;;;;15.32;64.62;98567.53;5042695;28;20053;-74
2023/09/24 10:03:46;;;;;;;0.20;0.20;;;;;;;15.41;65.40;98569.03;5042991;28;20044;-74
2023/09/24 10:06:14;;;;;;;0.20;0.20;;;;;;;15.50;64.56;98566.97;5046468;28;20048;-73
2023/09/24 10:08:43;;;;;;;0.20;0.20;;;;;;;15.52;65.13;98566.78;5047235;28;20044;-74
2023/09/24 10:11:12;;;;;;;0.20;0.20;;;;;;;15.54;64.95;98567.41;5044762;28;20422;-74
2023/09/24 10:13:46;;;;;;;0.17;0.17;;;;;;;15.37;65.11;98569.59;5043375;28;20037;-74
2023/09/24 10:16:38;;;;;;;0.20;0.20;;;;;;;15.46;65.21;98573.81;5043529;28;20052;-73
2023/09/24 10:19:08;;;;;;;0.10;0.10;;;;;;;15.52;64.54;98564.09;5043263;28;20052;-74
2023/09/24 10:21:37;;;;;;;0.10;0.10;;;;;;;15.60;63.57;98575.53;5043443;28;20124;-73
2023/09/24 10:24:41;;;;;;;0.20;0.20;;;;;;;15.56;62.05;98560.84;5042332;28;20029;-74
2023/09/24 10:27:09;;;;;;;0.10;0.10;;;;;;;15.68;63.39;98561.88;5042715;28;20049;-73
2023/09/24 10:30:04;;;;;;;0.13;0.13;;;;;;;15.78;62.56;98572.25;5042783;28;20045;-74
2023/09/24 10:32:49;;;;;;;0.10;0.10;;;;;;;15.82;62.77;98568.13;5041908;28;20099;-74
2023/09/24 10:35:18;;;;;;;0.17;0.17;;;;;;;15.90;62.45;98564.41;5042558;28;20044;-74
2023/09/24 10:38:02;;;;;;;0.13;0.13;;;;;;;16.01;61.92;98563.81;5042052;28;20059;-74
2023/09/24 10:40:31;;;;;;;0.20;0.20;;;;;;;16.07;60.85;98568.41;5042454;28;20037;-74
2023/09/24 10:43:18;;;;;;;0.10;0.10;;;;;;;16.07;60.06;98571.91;5042873;28;20047;-74
2023/09/24 10:45:48;;;;;;;0.20;0.20;;;;;;;16.15;60.66;98576.28;5041603;28;20112;-74
2023/09/24 10:48:19;;;;;;;0.10;0.10;;;;;;;16.21;59.57;98574.59;5042157;28;20052;-74
2023/09/24 10:51:06;;;;;;;0.13;0.13;;;;;;;16.19;58.96;98571.31;5045435;28;20042;-74
2023/09/24 10:53:34;;;;;;;0.15;0.15;;;;;;;16.12;59.23;98563.19;5041250;28;20045;-74
2023/09/24 10:56:02;;;;;;;0.10;0.10;;;;;;;16.31;58.94;98559.69;5042288;28;20051;-73
2023/09/24 10:58:38;;;;;;;0.10;0.10;;;;;;;16.40;58.68;98563.81;5041410;28;20063;-74
2023/09/24 11:01:06;;;;;;;0.13;0.13;;;;;;;16.55;57.96;98560.94;5042783;28;20059;-74
2023/09/24 11:03:36;;;;;;;0.20;0.20;;;;;;;16.66;56.96;98562.19;5041409;28;20116;-74
2023/09/24 11:06:07;;;;;;;0.10;0.10;;;;;;;16.81;56.13;98554.72;5041995;28;20426;-74
2023/09/24 11:08:35;;;;;;;0.20;0.20;;;;;;;16.87;56.13;98567.34;5041759;28;20079;-74
2023/09/24 11:11:02;;;;;;;0.10;0.10;;;;;;;16.53;55.31;98566.53;5041322;28;20045;-73
2023/09/24 11:13:30;;;;;;;0.13;0.13;;;;;;;16.57;55.29;98564.25;5041828;28;20052;-74
2023/09/24 11:15:58;;;;;;;0.15;0.15;;;;;;;16.70;55.16;98566.97;5041450;28;20398;-74
2023/09/24 11:18:28;;;;;;;0.20;0.20;;;;;;;16.78;55.69;98571.31;5041104;28;20042;-74
2023/09/24 11:20:58;;;;;;;0.32;0.10;;;;;;;16.82;55.76;98575.22;5041396;28;20033;-73
2023/09/24 11:23:25;;;;;;;0.10;0.10;;;;;;;16.84;55.99;98567.75;5041145;28;20045;-74
2023/09/24 11:25:53;;;;;;;0.10;0.10;;;;;;;16.86;55.58;98563.81;5041239;28;20037;-74
2023/09/24 11:28:30;;;;;;;0.10;0.10;;;;;;;16.55;56.02;98557.41;5047966;28;20049;-74
2023/09/24 11:30:57;;;;;;;0.10;0.10;;;;;;;16.43;56.00;98557.19;5048087;28;20053;-74
2023/09/24 11:33:25;;;;;;;0.10;0.10;;;;;;;16.24;56.63;98558.03;5041080;28;20091;-74
2023/09/24 11:35:54;;;;;;;0.10;0.10;;;;;;;16.44;56.09;98557.00;5040236;28;20037;-74
2023/09/24 11:38:31;;;;;;;0.15;0.15;;;;;;;16.65;55.38;98560.53;5042261;28;20045;-74
2023/09/24 11:41:06;;;;;;;0.10;0.10;;;;;;;16.77;54.84;98558.84;5041563;28;20044;-73
2023/09/24 11:43:35;;;;;;;0.10;0.10;;;;;;;16.80;54.62;98561.16;5042804;28;20558;-74
2023/09/24 11:46:15;;;;;;;0.10;0.10;;;;;;;16.84;54.99;98563.19;5041480;28;20502;-74
2023/09/24 11:48:44;;;;;;;0.10;0.10;;;;;;;16.85;54.74;98558.63;5041059;28;20059;-73